Time;durP1;ratioP1;P1;durP2;ratioP2;P2;SDS_P1;SDS_P2;PMS_P1;PMS_P2;Temp;Humidity;BMP_temperature;BMP_pressure;BME280_temperature;BME280_humidity;BME280_pressure;Samples;Min_cycle;Max_cycle;Signal;HPM_P1;HPM_P2
2022/10/06 00:02:23;;;;;;;6.00;2.42;;;;;;;7.84;91.49;98209.63;5043837;28;20136;-63
2022/10/06 00:04:49;;;;;;;3.40;2.13;;;;;;;7.94;91.36;98236.09;5043600;28;20053;-61
2022/10/06 00:07:16;;;;;;;4.68;2.55;;;;;;;7.77;90.70;98191.97;5044815;28;20620;-62
2022/10/06 00:09:43;;;;;;;5.85;2.45;;;;;;;7.83;90.46;98229.28;5043719;28;20103;-60
2022/10/06 00:12:09;;;;;;;8.55;2.58;;;;;;;6.76;91.31;98056.50;5044884;28;20144;-61
2022/10/06 00:14:36;;;;;;;6.60;3.22;;;;;;;7.20;90.95;98131.44;5045401;28;20061;-60
2022/10/06 00:17:03;;;;;;;7.22;2.90;;;;;;;7.18;91.30;98136.44;5045047;28;20134;-60
2022/10/06 00:19:30;;;;;;;5.53;3.13;;;;;;;7.16;91.82;98163.50;5045112;28;20088;-60
2022/10/06 00:21:56;;;;;;;6.50;3.42;;;;;;;7.30;93.71;98227.56;5045254;28;20438;-61
2022/10/06 00:24:23;;;;;;;6.90;3.13;;;;;;;7.08;95.26;98230.41;5044991;28;20096;-64
2022/10/06 00:26:50;;;;;;;8.30;4.10;;;;;;;7.25;94.91;98224.97;5045235;28;20114;-61
2022/10/06 00:29:17;;;;;;;7.50;3.55;;;;;;;7.00;94.85;98195.38;5043368;28;20057;-61
2022/10/06 00:31:44;;;;;;;7.25;3.70;;;;;;;7.22;94.46;98219.28;5044476;28;20478;-61
2022/10/06 00:34:11;;;;;;;28.45;7.97;;;;;;;7.17;95.14;98220.25;5044744;28;20098;-62
2022/10/06 00:36:38;;;;;;;18.95;5.50;;;;;;;6.91;96.13;98164.25;5042993;28;20053;-61
2022/10/06 00:39:05;;;;;;;7.75;3.58;;;;;;;4.08;96.36;97703.44;5044293;28;20126;-61
2022/10/06 00:41:32;;;;;;;7.25;3.92;;;;;;;7.34;96.42;98223.03;5044301;28;20440;-61
2022/10/06 00:43:58;;;;;;;7.97;3.78;;;;;;;7.19;94.88;98215.22;5043083;28;20569;-62
2022/10/06 00:46:46;;;;;;;5.97;3.10;;;;;;;7.30;93.80;98222.03;5043086;28;20080;-61
2022/10/06 00:49:35;;;;;;;5.72;2.92;;;;;;;7.37;95.36;98216.88;5043169;28;20587;-61
2022/10/06 00:52:07;;;;;;;4.50;2.50;;;;;;;6.76;95.95;98117.88;5044469;28;20096;-61
2022/10/06 00:54:35;;;;;;;6.10;2.78;;;;;;;7.45;96.01;98218.84;5044497;28;20084;-62
2022/10/06 00:57:03;;;;;;;5.78;3.05;;;;;;;7.48;95.55;98217.38;5044625;28;20103;-61
2022/10/06 00:59:30;;;;;;;4.50;2.70;;;;;;;6.99;95.75;98149.69;5042870;28;20053;-61
2022/10/06 01:02:08;;;;;;;3.00;2.08;;;;;;;7.44;95.54;98217.25;5044429;28;20156;-61
2022/10/06 01:04:39;;;;;;;3.97;2.58;;;;;;;7.37;95.67;98218.81;5044510;28;20139;-60
2022/10/06 01:07:07;;;;;;;3.08;2.00;;;;;;;7.42;92.93;98219.50;5043925;28;20057;-60
2022/10/06 01:09:34;;;;;;;2.95;2.20;;;;;;;7.37;93.80;98219.66;5042785;28;20138;-61
2022/10/06 01:12:04;;;;;;;4.80;2.28;;;;;;;7.45;93.90;98216.09;5044473;28;20106;-62
2022/10/06 01:14:31;;;;;;;4.35;2.60;;;;;;;7.13;94.31;98164.16;5044243;28;20141;-61
2022/10/06 01:17:06;;;;;;;2.47;1.80;;;;;;;7.57;93.40;98213.50;5044317;28;20095;-61
2022/10/06 01:19:48;;;;;;;2.22;1.90;;;;;;;7.51;93.41;98217.56;5044449;28;20055;-61
2022/10/06 01:22:17;;;;;;;4.10;2.30;;;;;;;7.43;94.12;98210.09;5043258;28;20088;-61
2022/10/06 01:24:46;;;;;;;4.00;2.00;;;;;;;7.34;93.86;98184.47;5044160;28;20063;-63
2022/10/06 01:27:15;;;;;;;2.10;1.90;;;;;;;6.93;94.38;98128.94;5044032;28;20049;-61
2022/10/06 01:29:42;;;;;;;5.03;1.95;;;;;;;7.50;93.90;98202.16;5042622;28;20076;-61
2022/10/06 01:32:08;;;;;;;3.08;2.17;;;;;;;7.40;93.74;98220.94;5044030;28;20124;-61
2022/10/06 01:34:35;;;;;;;4.32;2.30;;;;;;;7.23;93.59;98198.84;5042406;28;20144;-61
2022/10/06 01:37:02;;;;;;;5.35;2.80;;;;;;;7.26;93.33;98206.47;5044264;28;20061;-61
2022/10/06 01:39:28;;;;;;;5.50;2.53;;;;;;;6.34;92.00;98066.22;5043905;28;20057;-61
2022/10/06 01:41:55;;;;;;;4.07;2.13;;;;;;;7.14;92.77;98187.84;5044391;28;20089;-61
2022/10/06 01:44:22;;;;;;;3.45;2.13;;;;;;;7.26;93.17;98215.56;5044350;28;20150;-62
2022/10/06 01:46:48;;;;;;;4.65;3.22;;;;;;;6.57;93.18;98097.25;5042417;28;20127;-61
2022/10/06 01:49:15;;;;;;;4.05;1.90;;;;;;;7.19;93.93;98206.94;5044010;28;20136;-61
2022/10/06 01:51:41;;;;;;;6.65;2.47;;;;;;;6.88;93.99;98162.13;5043913;28;20057;-62
2022/10/06 01:54:08;;;;;;;3.10;1.90;;;;;;;7.17;95.20;98200.97;5042225;28;20076;-61
2022/10/06 01:56:34;;;;;;;4.25;2.28;;;;;;;6.15;95.23;98051.91;5043995;28;20061;-61
2022/10/06 01:59:01;;;;;;;4.57;2.72;;;;;;;6.25;94.74;98048.06;5044312;28;20076;-61
2022/10/06 02:01:28;;;;;;;4.65;1.80;;;;;;;7.00;94.65;98194.59;5043914;28;20092;-61
2022/10/06 02:03:54;;;;;;;4.40;2.40;;;;;;;6.71;93.87;98142.81;5042083;28;20078;-62
2022/10/06 02:06:21;;;;;;;4.07;2.30;;;;;;;7.05;93.87;98195.25;5042325;28;20750;-61
2022/10/06 02:08:48;;;;;;;5.03;2.55;;;;;;;6.88;94.61;98170.41;5044134;28;20052;-61
2022/10/06 02:11:14;;;;;;;5.35;2.75;;;;;;;7.05;95.45;98195.25;5044561;28;20076;-61
2022/10/06 02:13:41;;;;;;;5.30;2.70;;;;;;;7.03;94.65;98189.25;5043987;28;20115;-62
2022/10/06 02:16:09;;;;;;;5.28;3.58;;;;;;;6.64;95.05;98158.97;5042607;28;20283;-61
2022/10/06 02:18:35;;;;;;;4.45;3.10;;;;;;;6.57;95.37;98124.78;5042575;28;20049;-61
2022/10/06 02:21:03;;;;;;;5.72;2.90;;;;;;;6.97;94.84;98179.50;5042546;28;20573;-60
2022/10/06 02:23:31;;;;;;;4.82;2.67;;;;;;;6.71;94.59;98153.81;5044164;28;20657;-61
2022/10/06 02:26:03;;;;;;;3.63;2.20;;;;;;;6.98;94.50;98197.66;5043991;28;20141;-61
2022/10/06 02:28:30;;;;;;;4.20;2.20;;;;;;;6.69;95.75;98156.06;5043555;28;20091;-61
2022/10/06 02:31:03;;;;;;;3.13;2.00;;;;;;;6.99;95.96;98199.28;5043904;28;20443;-61
2022/10/06 02:33:30;;;;;;;2.90;2.10;;;;;;;6.79;95.77;98179.75;5044435;28;20049;-61
2022/10/06 02:35:57;;;;;;;3.78;2.10;;;;;;;6.79;95.59;98186.09;5045591;28;20132;-61
2022/10/06 02:38:27;;;;;;;2.90;1.70;;;;;;;6.87;95.05;98207.34;5045864;28;20045;-61
2022/10/06 02:40:54;;;;;;;3.92;2.00;;;;;;;6.46;94.30;98154.53;5046529;28;20593;-62
2022/10/06 02:43:21;;;;;;;3.55;2.13;;;;;;;6.83;94.95;98197.28;5047510;28;20081;-61
2022/10/06 02:45:55;;;;;;;3.22;2.20;;;;;;;6.62;94.91;98183.25;5045276;28;20049;-61
2022/10/06 02:48:23;;;;;;;5.53;1.80;;;;;;;6.66;95.38;98206.25;5047128;28;20167;-61
2022/10/06 02:50:58;;;;;;;4.32;2.30;;;;;;;6.51;96.08;98190.19;5047164;28;20056;-62
2022/10/06 02:53:25;;;;;;;3.17;1.95;;;;;;;5.92;97.34;98089.66;5045439;28;20053;-63
2022/10/06 02:56:00;;;;;;;3.63;2.58;;;;;;;6.14;97.29;98138.31;5046220;28;20531;-61
2022/10/06 02:58:28;;;;;;;3.17;2.10;;;;;;;6.14;97.60;98132.81;5046630;28;20143;-60
2022/10/06 03:01:05;;;;;;;3.17;2.25;;;;;;;6.69;97.24;98199.31;5046603;28;20075;-60
2022/10/06 03:03:34;;;;;;;5.50;2.58;;;;;;;5.83;97.37;98077.00;5044958;28;20526;-62
2022/10/06 03:06:03;;;;;;;7.60;5.32;;;;;;;6.71;95.51;98199.81;5014550;28;20510;-61
2022/10/06 03:08:30;;;;;;;9.90;5.63;;;;;;;6.45;94.23;98166.66;5045400;28;20126;-61
2022/10/06 03:11:02;;;;;;;9.23;5.43;;;;;;;6.63;93.05;98198.63;5046489;28;20062;-61
2022/10/06 03:13:29;;;;;;;10.70;6.07;;;;;;;5.51;93.32;98036.00;5046725;28;20623;-61
2022/10/06 03:15:57;;;;;;;9.68;4.70;;;;;;;6.45;93.20;98199.66;5044985;28;20520;-61
2022/10/06 03:18:23;;;;;;;10.13;5.22;;;;;;;6.40;92.50;98212.75;5045160;28;20103;-61
2022/10/06 03:20:52;;;;;;;11.55;5.65;;;;;;;5.58;92.94;98074.88;5044602;28;20072;-61
2022/10/06 03:23:19;;;;;;;10.50;6.15;;;;;;;4.42;91.98;97880.03;5044669;28;20493;-61
2022/10/06 03:25:54;;;;;;;9.60;4.63;;;;;;;6.30;92.57;98205.59;5045720;28;20103;-61
2022/10/06 03:28:21;;;;;;;9.35;4.63;;;;;;;5.21;92.74;98053.25;5046462;28;20500;-62
2022/10/06 03:30:47;;;;;;;7.63;3.95;;;;;;;6.15;93.10;98216.97;5044578;28;20184;-61
2022/10/06 03:33:14;;;;;;;11.45;4.53;;;;;;;6.01;95.34;98200.53;5046061;28;20103;-61
2022/10/06 03:35:40;;;;;;;7.30;3.78;;;;;;;5.84;95.74;98183.09;5046128;28;20480;-61
2022/10/06 03:38:07;;;;;;;7.60;4.30;;;;;;;6.04;95.22;98205.41;5046048;28;20057;-61
2022/10/06 03:40:34;;;;;;;9.20;4.60;;;;;;;6.02;95.80;98201.34;5045723;28;20475;-61
2022/10/06 03:43:00;;;;;;;11.73;6.38;;;;;;;6.04;95.59;98199.91;5044304;28;20140;-61
2022/10/06 03:45:27;;;;;;;16.75;5.68;;;;;;;6.12;96.04;98199.16;5045136;28;20603;-62
2022/10/06 03:47:54;;;;;;;12.35;7.10;;;;;;;6.15;94.88;98178.44;5046026;28;20419;-62
2022/10/06 03:50:20;;;;;;;22.02;11.68;;;;;;;5.19;95.35;98034.34;5045495;28;20049;-64
2022/10/06 03:52:50;;;;;;;24.73;10.90;;;;;;;5.80;96.03;98127.09;5043989;28;20084;-63
2022/10/06 03:55:16;;;;;;;21.00;8.75;;;;;;;6.40;95.49;98197.06;5044269;28;20227;-62
2022/10/06 03:57:43;;;;;;;14.63;8.27;;;;;;;6.45;95.19;98182.38;5044176;28;20053;-63
2022/10/06 04:00:11;;;;;;;15.70;8.27;;;;;;;6.53;94.70;98196.16;5044171;28;20144;-61
2022/10/06 04:02:37;;;;;;;11.38;6.13;;;;;;;6.05;95.73;98124.50;5043947;28;20061;-62
2022/10/06 04:05:04;;;;;;;11.13;5.22;;;;;;;6.58;96.46;98185.00;5044047;28;20080;-63
2022/10/06 04:07:31;;;;;;;14.40;6.20;;;;;;;6.30;96.27;98153.31;5043475;28;20583;-62
2022/10/06 04:09:57;;;;;;;12.48;6.10;;;;;;;6.59;95.31;98189.38;5045686;28;20045;-61
2022/10/06 04:12:24;;;;;;;9.73;5.50;;;;;;;6.24;93.96;98110.56;5045149;28;20052;-62
2022/10/06 04:14:52;;;;;;;15.07;6.68;;;;;;;6.67;94.87;98187.81;5043782;28;20057;-61
2022/10/06 04:17:25;;;;;;;9.43;5.43;;;;;;;6.65;94.85;98176.31;5043598;28;20594;-60
2022/10/06 04:19:51;;;;;;;8.10;4.13;;;;;;;6.61;95.19;98189.88;5044011;28;20053;-61
2022/10/06 04:22:18;;;;;;;10.02;4.55;;;;;;;6.68;94.81;98198.50;5044841;28;20061;-62
2022/10/06 04:24:44;;;;;;;9.18;4.57;;;;;;;6.54;95.16;98158.44;5043139;28;20109;-61
2022/10/06 04:27:26;;;;;;;9.70;5.22;;;;;;;6.76;94.93;98211.50;5043675;28;20056;-61
2022/10/06 04:29:53;;;;;;;12.20;4.95;;;;;;;6.80;94.41;98179.44;5043521;28;20136;-61
2022/10/06 04:32:19;;;;;;;5.30;3.60;;;;;;;6.75;93.96;98179.56;5045172;28;20076;-60
2022/10/06 04:34:46;;;;;;;9.13;3.30;;;;;;;6.42;94.66;98126.00;5043409;28;20052;-62
2022/10/06 04:37:12;;;;;;;7.22;3.83;;;;;;;6.48;94.67;98116.47;5044856;28;20048;-61
2022/10/06 04:39:39;;;;;;;6.13;3.70;;;;;;;6.75;95.45;98176.81;5044496;28;20088;-62
2022/10/06 04:42:06;;;;;;;8.23;4.75;;;;;;;6.05;94.97;98046.72;5044730;28;20334;-61
2022/10/06 04:44:33;;;;;;;6.65;4.85;;;;;;;6.92;93.93;98181.59;5042985;28;20494;-61
2022/10/06 04:47:00;;;;;;;10.98;5.10;;;;;;;6.88;92.94;98169.56;5044453;28;20041;-61
2022/10/06 04:49:26;;;;;;;6.65;5.05;;;;;;;6.71;93.33;98130.97;5044823;28;20060;-60
2022/10/06 04:51:53;;;;;;;6.63;4.70;;;;;;;7.12;94.09;98187.34;5043981;28;20056;-61
2022/10/06 04:54:20;;;;;;;9.30;5.28;;;;;;;6.79;94.22;98125.50;5040698;28;20115;-61
2022/10/06 04:56:46;;;;;;;10.10;4.93;;;;;;;7.30;93.89;98177.97;5042358;28;20132;-65
2022/10/06 04:59:13;;;;;;;16.38;6.28;;;;;;;7.29;93.66;98176.34;5043734;28;20091;-62
2022/10/06 05:01:40;;;;;;;9.25;4.72;;;;;;;7.16;95.10;98155.25;5044373;28;20052;-64
2022/10/06 05:04:06;;;;;;;7.20;3.53;;;;;;;7.18;95.09;98122.66;5043987;28;20060;-60
2022/10/06 05:06:39;;;;;;;7.30;2.97;;;;;;;7.60;94.35;98171.50;5044128;28;20175;-60
2022/10/06 05:09:12;;;;;;;6.13;2.80;;;;;;;7.81;93.66;98170.88;5044285;28;20194;-62
2022/10/06 05:11:38;;;;;;;7.03;2.67;;;;;;;7.70;92.92;98151.88;5042712;28;20187;-63
2022/10/06 05:14:06;;;;;;;4.90;2.50;;;;;;;7.88;91.96;98177.53;5044323;28;20053;-61
2022/10/06 05:16:33;;;;;;;3.28;2.47;;;;;;;8.07;91.53;98166.16;5044040;28;20060;-61
2022/10/06 05:19:00;;;;;;;6.00;3.50;;;;;;;7.90;90.00;98108.22;5042755;28;20460;-61
2022/10/06 05:21:31;;;;;;;3.97;2.33;;;;;;;8.12;89.83;98146.66;5044121;28;20143;-62
2022/10/06 05:23:58;;;;;;;6.80;2.30;;;;;;;7.83;89.76;98125.28;5044059;28;20057;-61
2022/10/06 05:26:29;;;;;;;4.97;2.20;;;;;;;8.33;90.17;98161.44;5042681;28;20091;-63
2022/10/06 05:28:56;;;;;;;5.95;2.38;;;;;;;8.48;89.25;98163.66;5042803;28;20128;-63
2022/10/06 05:31:28;;;;;;;7.05;2.72;;;;;;;8.54;89.66;98165.91;5044218;28;20603;-60
2022/10/06 05:33:56;;;;;;;2.70;2.30;;;;;;;8.66;88.61;98166.03;5042628;28;20151;-61
2022/10/06 05:36:29;;;;;;;4.82;2.08;;;;;;;8.82;88.39;98164.34;5041311;28;20064;-65
2022/10/06 05:38:57;;;;;;;4.97;2.40;;;;;;;8.98;88.04;98161.81;5033107;28;20071;-65
2022/10/06 05:41:24;;;;;;;10.82;2.92;;;;;;;9.20;86.88;98153.25;5027725;28;20552;-57
2022/10/06 05:43:54;;;;;;;7.50;2.60;;;;;;;9.04;85.98;98128.13;5036199;28;20550;-64
2022/10/06 05:46:27;;;;;;;10.40;3.72;;;;;;;9.53;86.06;98168.00;5043484;28;20084;-70
2022/10/06 05:48:56;;;;;;;5.15;2.53;;;;;;;9.77;84.37;98172.88;5043817;28;20472;-64
2022/10/06 05:51:29;;;;;;;10.40;3.72;;;;;;;9.32;83.63;98095.28;5042352;28;20057;-76
2022/10/06 05:53:58;;;;;;;7.90;3.53;;;;;;;10.11;83.30;98164.31;5043842;28;20052;-64
2022/10/06 05:56:27;;;;;;;11.13;3.85;;;;;;;10.16;82.00;98164.09;5042607;28;20076;-66
2022/10/06 05:58:55;;;;;;;7.55;4.40;;;;;;;10.42;81.39;98168.22;5058637;28;20114;-65
2022/10/06 06:01:34;;;;;;;11.75;4.40;;;;;;;10.68;79.77;98176.25;5042441;28;20147;-64
2022/10/06 06:04:03;;;;;;;9.52;3.17;;;;;;;10.38;79.69;98128.53;5043612;28;20084;-63
2022/10/06 06:06:33;;;;;;;9.15;3.60;;;;;;;10.95;79.26;98174.78;5043199;28;20045;-62
2022/10/06 06:09:11;;;;;;;6.47;3.95;;;;;;;11.07;78.66;98172.03;5045081;28;20567;-62
2022/10/06 06:11:40;;;;;;;11.23;4.30;;;;;;;11.27;78.00;98187.75;5047501;28;20140;-62
2022/10/06 06:14:10;;;;;;;8.77;3.38;;;;;;;11.34;77.35;98166.59;5046773;28;20085;-62
2022/10/06 06:16:38;;;;;;;8.75;3.17;;;;;;;11.56;77.05;98173.63;5042589;28;20068;-77
2022/10/06 06:19:07;;;;;;;5.55;3.47;;;;;;;11.84;75.51;98163.41;5045914;28;20435;-75
2022/10/06 06:21:34;;;;;;;8.60;3.33;;;;;;;11.96;75.05;98160.63;5045630;28;20068;-70
2022/10/06 06:24:01;;;;;;;9.68;3.97;;;;;;;12.22;73.94;98163.75;5047211;28;20130;-71
2022/10/06 06:26:33;;;;;;;6.90;3.63;;;;;;;12.40;73.62;98159.50;5046571;28;20102;-70
2022/10/06 06:29:04;;;;;;;7.95;3.30;;;;;;;12.49;73.60;98165.69;5047180;28;20049;-71
2022/10/06 06:31:34;;;;;;;6.43;3.20;;;;;;;12.62;71.64;98156.13;5041045;28;20053;-61
2022/10/06 06:34:03;;;;;;;12.88;4.70;;;;;;;12.07;72.65;98123.66;5040571;28;20045;-68
2022/10/06 06:36:34;;;;;;;8.15;2.80;;;;;;;12.94;70.83;98157.78;5046865;28;20049;-66
2022/10/06 06:39:07;;;;;;;11.02;5.15;;;;;;;12.97;69.89;98120.91;5046836;28;20439;-65
2022/10/06 06:41:38;;;;;;;10.95;3.67;;;;;;;13.39;68.67;98158.13;5046716;28;20072;-71
2022/10/06 06:44:09;;;;;;;11.38;3.55;;;;;;;13.58;67.71;98155.41;5045401;28;20110;-66
2022/10/06 06:46:38;;;;;;;11.35;3.42;;;;;;;13.73;66.82;98152.94;5044415;28;20068;-69
2022/10/06 06:49:05;;;;;;;3.95;2.92;;;;;;;13.89;66.36;98151.75;5040667;28;20048;-68
2022/10/06 06:51:40;;;;;;;9.63;3.17;;;;;;;14.05;66.16;98155.28;5061608;28;20045;-70
2022/10/06 06:54:08;;;;;;;5.45;4.03;;;;;;;14.10;67.35;98159.75;5045728;28;20052;-68
2022/10/06 06:56:35;;;;;;;9.85;4.10;;;;;;;14.18;68.13;98150.38;5046266;28;20056;-65
2022/10/06 06:59:10;;;;;;;13.05;5.10;;;;;;;13.50;68.16;98047.84;5046580;28;20434;-64
2022/10/06 07:01:45;;;;;;;5.53;3.70;;;;;;;14.20;68.22;98120.13;5046467;28;20065;-65
2022/10/06 07:04:14;;;;;;;8.75;4.07;;;;;;;14.52;66.99;98150.28;5046374;28;20526;-65
2022/10/06 07:06:55;;;;;;;7.30;4.00;;;;;;;14.69;66.13;98123.91;5045939;28;20146;-65
2022/10/06 07:09:25;;;;;;;7.28;3.15;;;;;;;14.91;64.89;98134.25;5046006;28;20049;-65
2022/10/06 07:11:53;;;;;;;5.93;3.70;;;;;;;15.07;64.38;98130.16;5044942;28;20135;-63
2022/10/06 07:14:22;;;;;;;9.10;4.95;;;;;;;14.98;63.45;98096.13;5046303;28;20158;-77
2022/10/06 07:25:06;;;;;;;8.80;4.50;;;;;;;15.65;60.56;98119.53;5026945;28;20103;-72
2022/10/06 07:27:37;;;;;;;11.23;4.28;;;;;;;15.79;59.70;98146.88;5045670;28;20110;-62
2022/10/06 07:30:04;;;;;;;4.93;3.85;;;;;;;16.10;58.59;98115.75;5045232;28;20044;-61
2022/10/06 07:32:31;;;;;;;6.00;3.33;;;;;;;15.67;58.38;98032.56;5042971;28;20049;-70
2022/10/06 07:34:59;;;;;;;4.68;2.50;;;;;;;16.41;56.99;98112.53;5045554;28;20523;-63
2022/10/06 07:37:27;;;;;;;8.43;6.05;;;;;;;16.24;57.33;98046.84;5045865;28;20057;-75
2022/10/06 07:39:54;;;;;;;2.30;2.10;;;;;;;16.49;56.28;98109.47;5041372;28;20508;-65
2022/10/06 07:42:21;;;;;;;7.63;3.45;;;;;;;16.86;56.33;98122.63;5046626;28;20128;-66
2022/10/06 07:47:36;;;;;;;3.13;2.58;;;;;;;17.03;56.03;98110.78;5045509;28;20173;-73
2022/10/06 07:50:07;;;;;;;6.05;2.20;;;;;;;17.28;55.14;98107.00;5045774;28;20053;-74
2022/10/06 07:52:37;;;;;;;2.63;1.70;;;;;;;16.96;51.86;98032.34;5045589;28;20561;-68
2022/10/06 07:55:05;;;;;;;1.95;1.73;;;;;;;16.82;51.53;97976.28;5045273;28;20049;-69
2022/10/06 07:57:33;;;;;;;3.33;1.83;;;;;;;17.43;52.37;98068.69;5045214;28;20106;-69
2022/10/06 08:00:03;;;;;;;3.45;1.70;;;;;;;17.85;51.58;98102.59;5044899;28;20136;-69
2022/10/06 08:02:30;;;;;;;4.03;2.08;;;;;;;17.25;50.81;97992.97;5045549;28;20080;-70
2022/10/06 08:05:01;;;;;;;2.63;1.90;;;;;;;17.77;50.82;98062.53;5045020;28;20063;-67
2022/10/06 08:07:28;;;;;;;5.45;2.80;;;;;;;17.95;51.17;98085.84;5032381;28;20061;-68
2022/10/06 08:09:54;;;;;;;3.42;2.00;;;;;;;18.10;51.71;98084.72;5044724;28;20129;-64
2022/10/06 08:12:33;;;;;;;3.65;2.20;;;;;;;18.19;50.50;98084.34;5044729;28;20076;-63
2022/10/06 08:15:02;;;;;;;2.67;1.80;;;;;;;18.32;49.50;98090.41;5044334;28;20057;-62
2022/10/06 08:17:35;;;;;;;2.67;2.20;;;;;;;17.08;49.50;97942.44;5057793;28;20048;-62
2022/10/06 08:20:09;;;;;;;5.13;2.13;;;;;;;17.78;49.20;98052.13;5043418;28;20140;-70
2022/10/06 08:22:37;;;;;;;8.52;3.22;;;;;;;17.99;49.01;98077.44;5043797;28;20122;-61
2022/10/06 08:25:06;;;;;;;6.68;2.22;;;;;;;17.76;48.71;97984.44;5043191;28;20435;-62
2022/10/06 08:27:34;;;;;;;3.58;2.60;;;;;;;18.30;48.44;98045.91;5033167;28;20132;-65
2022/10/06 08:30:04;;;;;;;4.18;2.42;;;;;;;18.73;48.00;98075.69;5040464;28;20144;-66
2022/10/06 08:32:31;;;;;;;4.32;2.60;;;;;;;18.34;47.45;97990.59;5035238;28;20132;-69
2022/10/06 08:34:58;;;;;;;3.83;2.42;;;;;;;19.04;46.57;98074.13;5034443;28;20075;-70
2022/10/06 08:37:26;;;;;;;3.42;1.92;;;;;;;19.25;45.58;98072.09;5043744;28;20053;-72
2022/10/06 08:39:53;;;;;;;3.10;2.00;;;;;;;19.37;43.37;98066.13;5043582;28;20559;-73
2022/10/06 08:42:33;;;;;;;2.72;2.00;;;;;;;18.83;43.59;98018.75;5028300;28;20433;-71
2022/10/06 08:45:12;;;;;;;2.42;1.80;;;;;;;18.34;44.11;97895.22;5041873;28;20491;-76
2022/10/06 08:47:49;;;;;;;2.78;2.45;;;;;;;19.54;42.78;98054.03;5045219;28;20162;-66
2022/10/06 08:50:16;;;;;;;2.58;2.00;;;;;;;19.52;42.78;98056.44;5043293;28;20076;-62
2022/10/06 08:52:46;;;;;;;3.03;1.92;;;;;;;19.58;42.60;98060.44;5038788;28;20068;-67
2022/10/06 08:55:22;;;;;;;2.55;2.05;;;;;;;19.58;42.37;98064.47;5024102;28;20093;-72
2022/10/06 08:58:00;;;;;;;2.45;1.80;;;;;;;19.66;42.78;98060.44;5030746;28;20064;-68
2022/10/06 09:00:31;;;;;;;1.50;1.40;;;;;;;19.87;41.55;98057.59;5037244;28;20056;-68
2022/10/06 09:03:00;;;;;;;2.33;1.65;;;;;;;19.58;41.73;98013.88;5043004;28;20571;-65
2022/10/06 09:05:30;;;;;;;2.47;1.65;;;;;;;19.37;42.15;97972.56;5042111;28;20504;-66
2022/10/06 09:08:02;;;;;;;1.70;1.42;;;;;;;20.12;41.14;98045.00;5040972;28;20068;-69
2022/10/06 09:10:48;;;;;;;3.00;2.00;;;;;;;19.43;41.48;97968.94;5043829;28;20099;-70
2022/10/06 09:13:28;;;;;;;3.58;1.60;;;;;;;20.14;41.46;98044.66;5043274;28;20546;-63
2022/10/06 09:16:06;;;;;;;1.92;1.65;;;;;;;20.04;41.53;98008.88;5048728;28;20052;-68
2022/10/06 09:18:44;;;;;;;2.03;1.83;;;;;;;19.83;41.41;97963.97;5038228;28;20106;-65
2022/10/06 09:21:45;;;;;;;3.67;2.08;;;;;;;20.48;41.22;98040.03;5030003;28;20048;-71
2022/10/06 09:24:21;;;;;;;3.25;2.03;;;;;;;20.46;40.77;98036.81;5041719;28;20041;-73
2022/10/06 09:26:50;;;;;;;5.75;2.88;;;;;;;20.27;39.87;97992.31;5026262;28;20049;-65
2022/10/06 09:29:17;;;;;;;1.90;1.60;;;;;;;19.51;40.08;97953.66;5035072;28;20137;-69
2022/10/06 09:31:49;;;;;;;3.80;2.38;;;;;;;19.21;41.52;98012.31;5037773;28;20132;-64
2022/10/06 09:34:19;;;;;;;5.78;3.10;;;;;;;19.94;40.67;98032.22;5023976;28;20055;-69
2022/10/06 09:37:04;;;;;;;2.50;2.30;;;;;;;19.55;40.84;97954.44;5023508;28;20067;-69
2022/10/06 09:39:36;;;;;;;4.35;1.80;;;;;;;20.20;39.74;98028.94;5022726;28;20057;-69
2022/10/06 09:42:08;;;;;;;2.05;1.80;;;;;;;20.48;40.37;98023.97;5024242;28;20475;-70
2022/10/06 09:44:51;;;;;;;2.58;1.90;;;;;;;20.84;39.00;98027.31;5025235;28;20128;-69
2022/10/06 09:47:34;;;;;;;3.67;1.90;;;;;;;21.10;38.82;98015.47;5026221;28;20057;-69
2022/10/06 09:50:13;;;;;;;2.33;1.83;;;;;;;21.26;38.69;98012.88;5026530;28;20057;-68
2022/10/06 09:53:06;;;;;;;2.47;1.92;;;;;;;20.70;38.41;97917.59;5037211;28;20122;-69
2022/10/06 09:55:36;;;;;;;3.42;2.70;;;;;;;21.38;38.14;98020.03;5045632;28;20053;-69
2022/10/06 09:58:21;;;;;;;3.85;2.83;;;;;;;21.59;38.05;98014.19;5047924;28;20198;-68
2022/10/06 10:00:59;;;;;;;4.40;2.40;;;;;;;21.75;38.45;98006.75;5045241;28;20084;-66
2022/10/06 10:03:50;;;;;;;2.42;2.22;;;;;;;21.83;38.07;98008.28;5047869;28;20061;-69
2022/10/06 10:06:36;;;;;;;3.85;3.30;;;;;;;20.98;39.11;98007.50;5046974;28;20128;-69
2022/10/06 10:09:18;;;;;;;8.93;3.45;;;;;;;21.09;39.67;98013.84;5047329;28;20072;-69
2022/10/06 10:12:27;;;;;;;4.13;2.90;;;;;;;21.05;37.69;97996.19;5047628;28;20140;-69
2022/10/06 10:15:02;;;;;;;2.13;1.90;;;;;;;20.60;39.02;97991.69;5047255;28;20115;-69
2022/10/06 10:17:35;;;;;;;3.88;2.20;;;;;;;21.01;38.54;97989.75;5047031;28;20388;-68
2022/10/06 10:20:07;;;;;;;2.47;2.27;;;;;;;21.13;38.46;97983.63;5045569;28;20060;-65
2022/10/06 10:22:38;;;;;;;2.42;1.65;;;;;;;20.87;37.58;97900.53;5044704;28;20049;-63
2022/10/06 10:25:23;;;;;;;4.18;2.13;;;;;;;21.51;36.97;97985.25;5040746;28;20419;-68
2022/10/06 10:28:16;;;;;;;2.58;1.63;;;;;;;21.72;37.80;97973.72;5037702;28;20164;-64
2022/10/06 10:31:00;;;;;;;2.33;1.98;;;;;;;21.08;37.12;97846.00;5026536;28;20053;-70
2022/10/06 10:33:39;;;;;;;3.10;2.40;;;;;;;21.86;36.80;97922.78;5039590;28;20060;-71
2022/10/06 10:36:24;;;;;;;2.50;2.25;;;;;;;22.23;36.87;97964.22;5051991;28;20628;-65
2022/10/06 10:38:53;;;;;;;3.50;2.30;;;;;;;21.44;37.26;97806.91;5050970;28;20138;-72
2022/10/06 10:41:24;;;;;;;4.60;2.58;;;;;;;22.31;36.68;97921.34;5045541;28;20084;-66
2022/10/06 10:43:55;;;;;;;4.68;2.53;;;;;;;22.55;36.62;97946.81;5044301;28;20107;-69
2022/10/06 10:46:37;;;;;;;2.95;2.72;;;;;;;22.29;37.00;97906.84;5042116;28;20053;-74
2022/10/06 10:49:11;;;;;;;2.50;2.20;;;;;;;22.65;36.00;97941.03;5040766;28;20053;-67
2022/10/06 10:51:57;;;;;;;3.42;2.55;;;;;;;22.66;36.37;97924.84;5029398;28;20068;-71
2022/10/06 10:54:43;;;;;;;5.57;3.22;;;;;;;22.73;36.21;97936.81;5041417;28;20057;-74
2022/10/06 10:57:16;;;;;;;2.05;1.92;;;;;;;20.98;36.85;97799.84;5044932;28;20138;-66
2022/10/06 10:59:46;;;;;;;2.70;2.50;;;;;;;21.60;37.22;97923.50;5044804;28;20076;-70
2022/10/06 11:02:20;;;;;;;3.40;1.88;;;;;;;21.72;36.68;97860.88;5046417;28;20087;-69
2022/10/06 11:04:59;;;;;;;7.35;2.63;;;;;;;21.38;36.43;97780.41;5046212;28;20088;-69
2022/10/06 11:07:37;;;;;;;3.22;1.70;;;;;;;21.91;37.42;97851.78;5031828;28;20454;-67
2022/10/06 11:10:21;;;;;;;2.90;2.20;;;;;;;22.67;36.09;97912.34;5032630;28;20055;-67
2022/10/06 11:13:13;;;;;;;3.08;2.20;;;;;;;22.37;35.64;97840.56;5044471;28;20142;-77
2022/10/06 11:15:56;;;;;;;1.88;1.77;;;;;;;23.00;35.10;97917.00;5046618;28;20080;-67
2022/10/06 11:18:51;;;;;;;3.97;2.30;;;;;;;23.01;34.81;97908.09;5046700;28;20451;-65
2022/10/06 11:21:24;;;;;;;2.97;1.70;;;;;;;22.66;34.69;97862.72;5053973;28;20059;-65
2022/10/06 11:24:18;;;;;;;4.70;2.28;;;;;;;22.93;34.62;97903.00;5065203;28;20084;-72
2022/10/06 11:26:47;;;;;;;2.65;2.22;;;;;;;22.78;35.10;97893.19;5048739;28;20076;-69
2022/10/06 11:29:49;;;;;;;4.28;2.17;;;;;;;22.95;35.53;97886.41;5042921;28;20041;-70
2022/10/06 11:32:55;;;;;;;3.75;1.88;;;;;;;22.76;34.91;97884.34;5022625;28;20076;-70
2022/10/06 11:35:28;;;;;;;4.60;2.33;;;;;;;21.40;36.40;97725.22;5044519;28;20045;-71
2022/10/06 11:38:00;;;;;;;3.67;3.07;;;;;;;22.67;35.82;97875.63;5026260;28;20056;-66
2022/10/06 11:40:30;;;;;;;2.95;2.20;;;;;;;22.82;36.01;97872.09;5023609;28;20761;-64
2022/10/06 11:43:26;;;;;;;7.95;2.90;;;;;;;23.04;35.32;97878.16;5034861;28;20053;-66
2022/10/06 11:46:12;;;;;;;3.50;2.45;;;;;;;22.42;35.24;97834.44;5044862;28;20499;-63
2022/10/06 11:48:41;;;;;;;1.88;1.77;;;;;;;22.74;35.28;97864.19;5042692;28;20483;-64
2022/10/06 11:51:22;;;;;;;2.30;2.10;;;;;;;23.15;34.85;97859.78;5045229;28;20064;-72
2022/10/06 11:53:50;;;;;;;4.60;1.90;;;;;;;23.18;33.89;97835.47;5042225;28;20076;-70
2022/10/06 11:56:16;;;;;;;7.35;2.95;;;;;;;23.48;33.89;97863.56;5042869;28;20122;-66
2022/10/06 11:58:55;;;;;;;2.90;2.03;;;;;;;22.62;34.04;97859.16;5045341;28;20064;-68
2022/10/06 12:01:31;;;;;;;4.82;2.60;;;;;;;22.64;34.55;97865.16;5039367;28;20057;-69
2022/10/06 12:04:07;;;;;;;4.10;2.60;;;;;;;22.83;35.04;97862.38;5024166;28;20057;-67
2022/10/06 12:06:46;;;;;;;3.08;2.22;;;;;;;22.97;34.46;97861.34;5027855;28;20112;-71
2022/10/06 12:09:40;;;;;;;3.85;2.28;;;;;;;23.13;34.16;97862.22;5023965;28;20516;-69